createdAt,value
2018-12-21T00:01:44.769Z,395.50
2018-12-21T00:04:15.158Z,393.82
2018-12-21T00:06:45.859Z,302.38
2018-12-21T00:09:16.705Z,594.77
2018-12-21T00:11:47.575Z,478.77
2018-12-21T00:14:18.305Z,483.07
2018-12-21T00:16:49.068Z,450.27
2018-12-21T00:19:19.556Z,362.55
2018-12-21T00:21:50.206Z,490.90
2018-12-21T00:24:20.831Z,532.52
2018-12-21T00:26:51.647Z,279.80
2018-12-21T00:29:22.317Z,1136.35
2018-12-21T00:31:57.968Z,374.48
2018-12-21T00:34:33.676Z,413.42
2018-12-21T00:37:09.374Z,472.05
2018-12-21T00:39:45.139Z,460.37
2018-12-21T00:42:19.672Z,534.03
2018-12-21T00:44:52.879Z,600.85
2018-12-21T00:47:23.371Z,403.85
2018-12-21T00:49:53.987Z,623.42
2018-12-21T00:52:24.763Z,398.35
2018-12-21T00:54:55.348Z,646.95
2018-12-21T00:57:25.991Z,651.02
2018-12-21T00:59:56.587Z,601.92
2018-12-21T01:02:27.289Z,671.92
2018-12-21T01:04:57.957Z,690.98
2018-12-21T01:07:28.750Z,516.08
2018-12-21T01:10:00.583Z,416.75
2018-12-21T01:12:31.283Z,503.40
2018-12-21T01:15:02.167Z,437.68
2018-12-21T01:17:33.949Z,396.87
2018-12-21T01:20:05.147Z,601.90
2018-12-21T01:22:35.619Z,399.48
2018-12-21T01:25:06.516Z,567.08
2018-12-21T01:27:37.191Z,294.27
2018-12-21T01:30:08.380Z,333.35
2018-12-21T01:32:39.095Z,369.93
2018-12-21T01:35:09.663Z,484.35
2018-12-21T01:37:40.303Z,508.32
2018-12-21T01:40:10.887Z,473.85
2018-12-21T01:42:41.706Z,569.55
2018-12-21T01:45:12.505Z,530.25
2018-12-21T01:47:43.046Z,366.38
2018-12-21T01:50:13.722Z,418.20
2018-12-21T01:52:44.477Z,296.75
2018-12-21T01:55:14.984Z,353.88
2018-12-21T01:57:45.575Z,305.55
2018-12-21T02:00:16.216Z,267.07
2018-12-21T02:02:46.893Z,339.30
2018-12-21T02:05:17.747Z,507.20
2018-12-21T02:07:48.408Z,374.25
2018-12-21T02:10:18.985Z,331.95
2018-12-21T02:12:49.542Z,453.77
2018-12-21T02:15:20.150Z,271.70
2018-12-21T02:17:50.954Z,422.45
2018-12-21T02:20:21.450Z,512.45
2018-12-21T02:22:52.075Z,315.75
2018-12-21T02:25:22.787Z,463.15
2018-12-21T02:27:53.484Z,355.52
2018-12-21T02:30:24.056Z,350.43
2018-12-21T02:32:54.652Z,295.18
2018-12-21T02:35:25.200Z,261.82
2018-12-21T02:37:55.912Z,231.40
2018-12-21T02:40:26.694Z,282.60
2018-12-21T02:42:57.379Z,222.60
2018-12-21T02:45:27.937Z,253.90
2018-12-21T02:47:58.604Z,346.35
2018-12-21T02:50:29.313Z,370.55
2018-12-21T02:53:00.100Z,475.15
2018-12-21T02:55:31.091Z,339.32
2018-12-21T02:58:01.863Z,298.23
2018-12-21T03:00:32.880Z,405.55
2018-12-21T03:03:03.838Z,354.43
2018-12-21T03:05:34.555Z,362.57
2018-12-21T03:08:05.304Z,293.17
2018-12-21T03:10:36.232Z,367.02
2018-12-21T03:13:07.037Z,489.60
2018-12-21T03:15:37.779Z,359.30
2018-12-21T03:18:08.364Z,419.23
2018-12-21T03:20:38.943Z,361.40
2018-12-21T03:23:09.505Z,367.07
2018-12-21T03:25:40.095Z,366.42
2018-12-21T03:28:10.886Z,523.25
2018-12-21T03:30:41.436Z,451.90
2018-12-21T03:33:12.150Z,440.40
2018-12-21T03:35:42.733Z,533.75
2018-12-21T03:38:13.365Z,488.87
2018-12-21T03:40:43.676Z,321.57
2018-12-21T03:43:14.434Z,570.25
2018-12-21T03:45:45.073Z,498.62
2018-12-21T03:48:15.826Z,460.48
2018-12-21T03:50:46.438Z,696.67
2018-12-21T03:53:16.978Z,405.00
2018-12-21T03:55:47.570Z,476.33
2018-12-21T03:58:18.207Z,399.12
2018-12-21T04:00:48.874Z,375.05
2018-12-21T04:03:19.503Z,494.35
2018-12-21T04:05:50.157Z,552.75
2018-12-21T04:08:20.796Z,407.27
2018-12-21T04:10:51.564Z,297.63
2018-12-21T04:13:22.228Z,214.20
2018-12-21T04:15:52.928Z,259.23
2018-12-21T04:18:23.562Z,277.90
2018-12-21T04:20:54.397Z,302.25
2018-12-21T04:23:25.016Z,213.68
2018-12-21T04:25:55.660Z,198.28
2018-12-21T04:28:26.323Z,193.90
2018-12-21T04:30:56.747Z,209.83
2018-12-21T04:33:27.378Z,201.67
2018-12-21T04:35:57.925Z,211.75
2018-12-21T04:38:28.553Z,226.73
2018-12-21T04:40:59.082Z,231.17
2018-12-21T04:43:29.692Z,252.20
2018-12-21T04:46:00.304Z,328.65
2018-12-21T04:48:31.095Z,229.18
2018-12-21T04:51:01.759Z,210.40
2018-12-21T04:53:32.101Z,215.77
2018-12-21T04:56:02.935Z,201.85
2018-12-21T04:58:33.480Z,253.18
2018-12-21T05:01:04.084Z,226.10
2018-12-21T05:03:34.512Z,334.48
2018-12-21T05:06:04.776Z,267.73
2018-12-21T05:08:35.151Z,255.45
2018-12-21T05:11:05.761Z,349.50
2018-12-21T05:13:36.330Z,348.95
2018-12-21T05:16:06.950Z,585.35
2018-12-21T05:18:38.247Z,266.12
2018-12-21T05:21:08.796Z,314.68
2018-12-21T05:23:39.249Z,294.73
2018-12-21T05:26:09.712Z,277.07
2018-12-21T05:28:40.258Z,288.27
2018-12-21T05:31:10.812Z,350.48
2018-12-21T05:33:41.521Z,226.35
2018-12-21T05:36:11.977Z,366.12
2018-12-21T05:38:42.700Z,291.08
2018-12-21T05:41:13.376Z,326.10
2018-12-21T05:43:44.047Z,366.80
2018-12-21T05:46:14.747Z,267.62
2018-12-21T05:48:45.175Z,371.82
2018-12-21T05:51:15.486Z,404.85
2018-12-21T05:53:46.052Z,250.03
2018-12-21T05:56:16.851Z,284.15
2018-12-21T05:58:47.493Z,206.32
2018-12-21T06:01:18.163Z,723.05
2018-12-21T06:03:48.950Z,235.15
2018-12-21T06:06:19.621Z,274.67
2018-12-21T06:08:50.469Z,228.10
2018-12-21T06:11:21.353Z,292.10
2018-12-21T06:13:52.036Z,327.32
2018-12-21T06:16:22.803Z,276.75
2018-12-21T06:18:53.486Z,275.50
2018-12-21T06:21:24.085Z,397.05
2018-12-21T06:23:54.823Z,292.25
2018-12-21T06:26:25.452Z,284.48
2018-12-21T06:28:56.189Z,333.30
2018-12-21T06:31:26.799Z,572.27
2018-12-21T06:33:57.465Z,347.80
2018-12-21T06:36:27.756Z,304.40
2018-12-21T06:38:58.537Z,354.02
2018-12-21T06:41:29.044Z,400.10
2018-12-21T06:43:59.640Z,241.50
2018-12-21T06:46:30.447Z,238.95
2018-12-21T06:49:00.982Z,197.02
2018-12-21T06:51:31.458Z,185.95
2018-12-21T06:54:02.161Z,195.82
2018-12-21T06:56:32.933Z,234.12
2018-12-21T06:59:03.637Z,311.10
2018-12-21T07:01:34.113Z,265.18
2018-12-21T07:04:04.642Z,236.07
2018-12-21T07:06:35.364Z,206.50
2018-12-21T07:09:07.740Z,229.53
2018-12-21T07:11:38.384Z,219.20
2018-12-21T07:14:09.058Z,209.30
2018-12-21T07:16:39.706Z,210.05
2018-12-21T07:19:10.347Z,217.05
2018-12-21T07:21:40.886Z,233.28
2018-12-21T07:24:11.286Z,196.30
2018-12-21T07:26:41.707Z,230.03
2018-12-21T07:29:12.114Z,224.95
2018-12-21T07:31:42.728Z,209.55
2018-12-21T07:34:13.475Z,241.65
2018-12-21T07:36:44.358Z,293.95
2018-12-21T07:39:14.964Z,259.80
2018-12-21T07:41:45.374Z,261.87
2018-12-21T07:44:16.102Z,257.80
2018-12-21T07:46:46.815Z,311.30
2018-12-21T07:49:17.389Z,253.60
2018-12-21T07:51:48.082Z,323.70
2018-12-21T07:54:18.924Z,261.37
2018-12-21T07:56:49.619Z,269.62
2018-12-21T07:59:20.227Z,252.07
2018-12-21T08:01:50.894Z,275.43
2018-12-21T08:04:21.553Z,263.02
2018-12-21T08:06:52.255Z,278.12
2018-12-21T08:09:22.787Z,265.52
2018-12-21T08:11:53.426Z,251.00
2018-12-21T08:14:24.155Z,254.38
2018-12-21T08:16:54.867Z,261.60
2018-12-21T08:19:25.555Z,329.75
2018-12-21T08:21:56.020Z,293.30
2018-12-21T08:24:26.771Z,297.98
2018-12-21T08:26:57.511Z,302.75
2018-12-21T08:29:27.993Z,286.20
2018-12-21T08:31:58.587Z,304.07
2018-12-21T08:34:29.307Z,358.60
2018-12-21T08:37:00.126Z,323.75
2018-12-21T08:39:30.718Z,276.25
2018-12-21T08:42:01.252Z,325.93
2018-12-21T08:44:32.268Z,281.55
2018-12-21T08:47:02.961Z,277.20
2018-12-21T08:49:39.901Z,268.50
2018-12-21T08:52:10.708Z,296.40
2018-12-21T08:54:41.226Z,413.18
2018-12-21T08:57:11.858Z,334.85
2018-12-21T08:59:42.662Z,305.75
2018-12-21T09:02:13.093Z,292.85
2018-12-21T09:04:43.748Z,316.80
2018-12-21T09:07:14.268Z,312.23
2018-12-21T09:09:45.110Z,269.20
2018-12-21T09:12:15.701Z,351.15
2018-12-21T09:14:46.368Z,319.77
2018-12-21T09:17:17.091Z,324.98
2018-12-21T09:19:47.659Z,285.50
2018-12-21T09:22:18.247Z,272.50
2018-12-21T09:24:49.067Z,291.80
2018-12-21T09:27:19.828Z,331.68
2018-12-21T09:29:50.469Z,246.25
2018-12-21T09:32:21.096Z,251.95
2018-12-21T09:34:51.931Z,213.90
2018-12-21T09:37:22.792Z,220.35
2018-12-21T09:39:53.449Z,208.43
2018-12-21T09:42:24.583Z,215.30
2018-12-21T09:44:55.528Z,208.57
2018-12-21T09:47:26.308Z,200.13
2018-12-21T09:49:57.121Z,236.30
2018-12-21T09:52:27.872Z,212.32
2018-12-21T09:54:58.502Z,211.50
2018-12-21T09:57:29.148Z,240.05
2018-12-21T09:59:59.814Z,229.97
2018-12-21T10:02:35.753Z,240.43
2018-12-21T10:05:03.463Z,238.37
2018-12-21T10:07:33.989Z,246.40
2018-12-21T10:10:05.012Z,262.70
2018-12-21T10:12:35.717Z,266.65
2018-12-21T10:15:07.502Z,273.70
2018-12-21T10:17:37.886Z,272.27
2018-12-21T10:20:09.976Z,247.40
2018-12-21T10:22:40.675Z,247.02
2018-12-21T10:25:11.436Z,251.58
2018-12-21T10:27:42.138Z,233.50
2018-12-21T10:30:12.842Z,246.10
2018-12-21T10:32:43.165Z,235.38
2018-12-21T10:35:14.001Z,253.98
2018-12-21T10:37:44.891Z,234.43
2018-12-21T10:40:15.404Z,240.30
2018-12-21T10:42:45.979Z,270.75
2018-12-21T10:45:16.813Z,258.93
2018-12-21T10:47:47.552Z,245.60
2018-12-21T10:50:18.489Z,265.65
2018-12-21T10:52:49.063Z,286.27
2018-12-21T10:55:19.711Z,308.60
2018-12-21T10:57:50.346Z,275.48
2018-12-21T11:00:21.563Z,272.27
2018-12-21T11:02:52.125Z,243.48
2018-12-21T11:05:22.777Z,234.77
2018-12-21T11:07:53.609Z,240.03
2018-12-21T11:10:24.450Z,238.20
2018-12-21T11:12:55.268Z,238.22
2018-12-21T11:15:26.195Z,233.60
2018-12-21T11:17:57.049Z,222.15
2018-12-21T11:20:27.795Z,221.82
2018-12-21T11:22:58.839Z,239.17
2018-12-21T11:25:29.591Z,231.63
2018-12-21T11:28:00.210Z,239.45
2018-12-21T11:30:30.878Z,227.50
2018-12-21T11:33:01.559Z,241.73
2018-12-21T11:35:32.541Z,232.72
2018-12-21T11:38:03.596Z,242.55
2018-12-21T11:40:34.396Z,259.73
2018-12-21T11:43:05.082Z,247.20
2018-12-21T11:45:35.621Z,222.50
2018-12-21T11:48:06.380Z,225.75
2018-12-21T11:50:36.966Z,236.87
2018-12-21T11:53:07.813Z,235.28
2018-12-21T11:55:38.361Z,240.12
2018-12-21T11:58:09.173Z,249.55
2018-12-21T12:00:39.856Z,239.20
2018-12-21T12:03:10.746Z,241.73
2018-12-21T12:05:41.532Z,242.57
2018-12-21T12:08:12.081Z,265.95
2018-12-21T12:10:42.644Z,259.87
2018-12-21T12:13:13.200Z,263.18
2018-12-21T12:15:44.036Z,251.77
2018-12-21T12:18:14.614Z,275.57
2018-12-21T12:20:45.356Z,272.80
2018-12-21T12:23:16.276Z,274.45
2018-12-21T12:25:46.963Z,251.40
2018-12-21T12:28:17.523Z,248.97
2018-12-21T12:30:48.367Z,267.80
2018-12-21T12:33:19.147Z,263.35
2018-12-21T12:35:49.943Z,266.10
2018-12-21T12:38:20.665Z,254.43
2018-12-21T12:40:51.150Z,254.32
2018-12-21T12:43:21.904Z,262.40
2018-12-21T12:45:52.552Z,244.40
2018-12-21T12:48:23.235Z,237.08
2018-12-21T12:50:54.024Z,235.02
2018-12-21T12:53:24.576Z,232.62
2018-12-21T12:55:55.449Z,230.47
2018-12-21T12:58:25.971Z,219.80
2018-12-21T13:00:56.736Z,233.45
2018-12-21T13:03:27.111Z,261.18
2018-12-21T13:05:57.631Z,258.65
2018-12-21T13:08:28.284Z,248.78
2018-12-21T13:10:59.053Z,249.00
2018-12-21T13:13:29.993Z,254.75
2018-12-21T13:16:00.714Z,260.50
2018-12-21T13:18:31.314Z,255.70
2018-12-21T13:21:02.167Z,262.15
2018-12-21T13:23:32.798Z,249.32
2018-12-21T13:26:03.460Z,261.95
2018-12-21T13:28:34.217Z,253.20
2018-12-21T13:31:05.702Z,248.13
2018-12-21T13:33:36.238Z,245.93
2018-12-21T13:36:07.837Z,268.25
2018-12-21T13:38:38.465Z,257.50
2018-12-21T13:41:09.353Z,256.02
2018-12-21T13:43:39.883Z,265.18
2018-12-21T13:46:10.605Z,285.50
2018-12-21T13:48:41.313Z,274.62
2018-12-21T13:51:12.243Z,276.40
2018-12-21T13:53:42.957Z,285.90
2018-12-21T13:56:13.589Z,272.85
2018-12-21T13:58:44.333Z,288.62
2018-12-21T14:01:15.072Z,267.62
2018-12-21T14:03:45.755Z,251.12
2018-12-21T14:06:17.204Z,260.55
2018-12-21T14:08:47.804Z,266.15
2018-12-21T14:11:18.575Z,295.85
2018-12-21T14:13:49.166Z,255.85
2018-12-21T14:16:19.992Z,265.12
2018-12-21T14:18:50.777Z,247.98
2018-12-21T14:21:21.624Z,223.87
2018-12-21T14:23:52.376Z,232.18
2018-12-21T14:26:22.979Z,253.80
2018-12-21T14:28:53.701Z,226.92
2018-12-21T14:31:24.518Z,212.32
2018-12-21T14:33:54.872Z,216.08
2018-12-21T14:36:25.390Z,217.15
2018-12-21T14:38:55.920Z,216.02
2018-12-21T14:41:26.372Z,218.17
2018-12-21T14:43:56.696Z,211.60
2018-12-21T14:46:27.418Z,220.52
2018-12-21T14:48:58.140Z,203.88
2018-12-21T14:51:28.850Z,208.28
2018-12-21T14:53:59.515Z,228.02
2018-12-21T14:56:30.042Z,238.65
2018-12-21T14:59:00.682Z,235.30
2018-12-21T15:01:31.140Z,218.90
2018-12-21T15:04:01.756Z,210.30
2018-12-21T15:06:32.355Z,205.10
2018-12-21T15:09:03.204Z,224.45
2018-12-21T15:11:34.719Z,215.77
2018-12-21T15:14:05.369Z,215.75
2018-12-21T15:16:35.904Z,221.77
2018-12-21T15:19:06.746Z,225.75
2018-12-21T15:21:37.514Z,212.65
2018-12-21T15:24:07.980Z,263.12
2018-12-21T15:26:38.494Z,279.43
2018-12-21T15:29:09.272Z,286.00
2018-12-21T15:31:39.714Z,306.32
2018-12-21T15:34:10.417Z,292.65
2018-12-21T15:36:40.901Z,323.00
2018-12-21T15:39:11.567Z,317.90
2018-12-21T15:41:42.251Z,306.93
2018-12-21T15:44:12.879Z,306.82
2018-12-21T15:46:43.954Z,307.52
2018-12-21T15:49:14.748Z,335.35
2018-12-21T15:51:46.202Z,305.90
2018-12-21T15:54:16.705Z,288.70
2018-12-21T15:56:47.631Z,308.55
2018-12-21T15:59:18.422Z,307.40
2018-12-21T16:01:48.924Z,274.90
2018-12-21T16:04:19.420Z,275.30
2018-12-21T16:06:51.036Z,288.10
2018-12-21T16:09:22.278Z,260.40
2018-12-21T16:11:53.024Z,264.23
2018-12-21T16:14:23.591Z,276.07
2018-12-21T16:16:54.415Z,255.00
2018-12-21T16:19:24.900Z,261.10
2018-12-21T16:21:55.643Z,258.47
2018-12-21T16:24:26.453Z,281.57
2018-12-21T16:26:57.139Z,298.35
2018-12-21T16:29:27.898Z,279.40
2018-12-21T16:31:58.570Z,300.62
2018-12-21T16:34:29.074Z,282.12
2018-12-21T16:36:59.699Z,291.73
2018-12-21T16:39:30.312Z,287.00
2018-12-21T16:42:01.078Z,267.95
2018-12-21T16:44:31.668Z,291.45
2018-12-21T16:47:02.373Z,313.87
2018-12-21T16:49:33.158Z,336.32
2018-12-21T16:52:04.065Z,343.30
2018-12-21T16:54:34.428Z,361.05
2018-12-21T16:57:05.137Z,327.25
2018-12-21T16:59:35.663Z,318.27
2018-12-21T17:02:06.352Z,318.57
2018-12-21T17:04:37.154Z,299.37
2018-12-21T17:07:07.795Z,300.77
2018-12-21T17:09:38.291Z,309.37
2018-12-21T17:12:15.229Z,295.33
2018-12-21T17:14:45.943Z,298.38
2018-12-21T17:17:16.476Z,289.30
2018-12-21T17:19:47.060Z,293.25
2018-12-21T17:22:17.721Z,301.60
2018-12-21T17:24:48.487Z,348.70
2018-12-21T17:27:19.147Z,344.18
2018-12-21T17:29:49.917Z,363.68
2018-12-21T17:32:20.648Z,363.02
2018-12-21T17:34:51.097Z,380.62
2018-12-21T17:37:21.728Z,368.97
2018-12-21T17:39:52.016Z,323.85
2018-12-21T17:42:22.637Z,339.45
2018-12-21T17:44:53.511Z,367.15
2018-12-21T17:47:24.284Z,330.10
2018-12-21T17:49:54.946Z,352.75
2018-12-21T17:52:26.463Z,360.05
2018-12-21T17:54:57.148Z,349.62
2018-12-21T17:57:27.687Z,357.70
2018-12-21T17:59:58.304Z,372.90
2018-12-21T18:02:29.148Z,328.10
2018-12-21T18:04:59.996Z,339.60
2018-12-21T18:07:30.758Z,339.23
2018-12-21T18:10:01.661Z,349.25
2018-12-21T18:12:32.414Z,362.98
2018-12-21T18:15:03.155Z,386.43
2018-12-21T18:17:33.886Z,356.45
2018-12-21T18:20:04.570Z,375.22
2018-12-21T18:22:35.271Z,441.98
2018-12-21T18:25:13.319Z,432.27
2018-12-21T18:27:45.548Z,401.87
2018-12-21T18:30:22.641Z,382.02
2018-12-21T18:32:53.437Z,373.85
2018-12-21T18:35:24.456Z,408.45
2018-12-21T18:38:02.236Z,438.63
2018-12-21T18:40:33.433Z,414.97
2018-12-21T18:43:04.316Z,428.30
2018-12-21T18:45:34.944Z,465.65
2018-12-21T18:48:05.656Z,389.17
2018-12-21T18:50:36.696Z,377.30
2018-12-21T18:53:07.419Z,388.52
2018-12-21T18:55:38.108Z,425.70
2018-12-21T18:58:08.588Z,478.95
2018-12-21T19:00:39.202Z,629.33
2018-12-21T19:03:09.934Z,556.90
2018-12-21T19:05:40.507Z,617.67
2018-12-21T19:08:11.305Z,569.52
2018-12-21T19:10:41.923Z,1112.47
2018-12-21T19:13:12.669Z,548.55
2018-12-21T19:15:43.007Z,519.05
2018-12-21T19:18:13.931Z,504.23
2018-12-21T19:20:44.444Z,544.02
2018-12-21T19:23:15.275Z,597.55
2018-12-21T19:25:46.027Z,630.03
2018-12-21T19:28:17.014Z,803.17
2018-12-21T19:30:47.804Z,759.48
2018-12-21T19:33:18.660Z,672.00
2018-12-21T19:35:49.471Z,1083.30
2018-12-21T19:38:21.308Z,632.50
2018-12-21T19:40:52.097Z,889.02
2018-12-21T19:43:28.070Z,1388.70
2018-12-21T19:45:55.486Z,593.40
2018-12-21T19:48:26.234Z,1228.65
2018-12-21T19:50:57.128Z,945.75
2018-12-21T19:53:28.425Z,1249.73
2018-12-21T19:56:16.317Z,916.80
2018-12-21T19:58:47.108Z,1388.50
2018-12-21T20:01:17.980Z,1159.25
2018-12-21T20:03:48.513Z,958.02
2018-12-21T20:06:19.134Z,718.15
2018-12-21T20:08:49.817Z,805.63
2018-12-21T20:11:20.598Z,618.15
2018-12-21T20:13:51.387Z,845.40
2018-12-21T20:16:21.958Z,1123.83
2018-12-21T20:18:53.024Z,790.02
2018-12-21T20:21:24.679Z,824.50
2018-12-21T20:23:55.444Z,618.97
2018-12-21T20:26:26.330Z,816.00
2018-12-21T20:28:56.987Z,1009.80
2018-12-21T20:31:27.601Z,811.67
2018-12-21T20:33:57.972Z,934.13
2018-12-21T20:36:28.666Z,676.33
2018-12-21T20:38:59.323Z,489.65
2018-12-21T20:41:30.051Z,470.55
2018-12-21T20:44:00.770Z,569.88
2018-12-21T20:46:31.479Z,637.40
2018-12-21T20:49:01.960Z,615.90
2018-12-21T20:51:32.663Z,703.85
2018-12-21T20:54:03.347Z,710.48
2018-12-21T20:56:33.899Z,672.40
2018-12-21T20:59:08.558Z,814.80
2018-12-21T21:01:40.181Z,547.52
2018-12-21T21:04:10.930Z,955.98
2018-12-21T21:06:41.764Z,904.67
2018-12-21T21:09:13.428Z,993.92
2018-12-21T21:11:44.461Z,841.62
2018-12-21T21:14:16.346Z,1012.05
2018-12-21T21:16:46.854Z,1112.30
2018-12-21T21:19:17.594Z,1030.22
2018-12-21T21:21:48.546Z,850.85
2018-12-21T21:24:19.411Z,773.65
2018-12-21T21:26:50.294Z,891.30
2018-12-21T21:29:20.770Z,601.20
2018-12-21T21:31:51.363Z,865.27
2018-12-21T21:34:21.913Z,1224.75
2018-12-21T21:36:52.511Z,722.23
2018-12-21T21:39:23.406Z,854.78
2018-12-21T21:41:54.284Z,1004.02
2018-12-21T21:44:25.002Z,916.40
2018-12-21T21:46:55.534Z,1008.70
2018-12-21T21:49:26.050Z,1600.58
2018-12-21T21:51:56.793Z,999.02
2018-12-21T21:54:27.554Z,790.70
2018-12-21T21:56:58.170Z,678.38
2018-12-21T21:59:28.841Z,1168.40
2018-12-21T22:01:59.191Z,925.68
2018-12-21T22:04:29.850Z,1160.35
2018-12-21T22:07:00.642Z,924.05
2018-12-21T22:09:31.566Z,966.25
2018-12-21T22:12:04.002Z,825.73
2018-12-21T22:14:34.540Z,1190.43
2018-12-21T22:17:05.235Z,1195.70
2018-12-21T22:19:36.018Z,1019.75
2018-12-21T22:22:06.566Z,1258.20
2018-12-21T22:24:37.135Z,1139.97
2018-12-21T22:27:07.785Z,1030.78
2018-12-21T22:29:38.566Z,911.03
2018-12-21T22:32:09.118Z,1026.65
2018-12-21T22:34:39.677Z,1140.33
2018-12-21T22:37:10.200Z,1095.43
2018-12-21T22:39:40.837Z,1047.63
2018-12-21T22:42:11.602Z,1249.73
2018-12-21T22:44:42.264Z,679.25
2018-12-21T22:47:12.964Z,844.97
2018-12-21T22:49:43.353Z,1052.03
2018-12-21T22:52:14.112Z,961.52
2018-12-21T22:54:44.795Z,1181.72
2018-12-21T22:57:15.474Z,843.37
2018-12-21T22:59:46.044Z,938.63
2018-12-21T23:02:16.532Z,930.05
2018-12-21T23:04:47.172Z,619.35
2018-12-21T23:07:17.824Z,1072.78
2018-12-21T23:09:48.346Z,743.00
2018-12-21T23:12:18.804Z,594.23
2018-12-21T23:14:49.511Z,924.05
2018-12-21T23:17:19.931Z,681.45
2018-12-21T23:19:50.363Z,416.85
2018-12-21T23:22:21.117Z,407.05
2018-12-21T23:24:51.732Z,386.20
2018-12-21T23:27:22.485Z,373.98
2018-12-21T23:29:52.982Z,366.48
2018-12-21T23:32:23.692Z,457.75
2018-12-21T23:34:54.371Z,421.60
2018-12-21T23:37:24.840Z,460.43
2018-12-21T23:39:55.518Z,444.40
2018-12-21T23:42:25.874Z,410.30
2018-12-21T23:44:56.339Z,407.85
2018-12-21T23:47:26.782Z,296.90
2018-12-21T23:49:57.409Z,280.85
2018-12-21T23:52:28.112Z,250.95
2018-12-21T23:54:58.607Z,304.25
2018-12-21T23:57:29.206Z,313.12
2018-12-21T23:59:59.863Z,252.93
